Terminal Aerodrome Forecast
Issued by NWS

Home | Current Version | Previous Version | Graphics & Text | Print | Product List | Glossary On
Versions: 1 2 3 4 5 6 7 8 9 10 11 12 13 14 15 16 17 18 19 20 21 22 23 24 25 26 27 28 29 30 31 32 33 34 35 36
912
FTUS43 KGRB 142329
TAFRHI
TAF
KRHI 142329Z 1500/1524 17005KT 1SM BR OVC003
      TEMPO 1500/1504 1/4SM -RADZ FG OVC002
     FM150400 18007KT 1/2SM -RADZ FG OVC003
     FM151400 26007KT 2SM -RADZ BR OVC003
     FM152100 29011G22KT P6SM BKN015=

USA.gov is the U.S. government's official web portal to all federal, state and local government web resources and services.